Time,TemperatureF,DewpointF,PressureIn,WindDirection,WindDirectionDegrees,WindSpeedMPH,WindSpeedGustMPH,Humidity,HourlyPrecipIn,Conditions,Clouds,dailyrainin,SolarRadiationWatts/m^2,SoftwareType,DateUTC
2013-03-09 00:03:00,30.0,23.0,-100.00,North,7,3.0,6.0,75,0.00,,,0.24,0.000000,,2013-03-09 05:03:00,
2013-03-09 00:12:00,30.0,23.0,-100.00,North,7,3.0,6.0,75,0.00,,,0.24,0.000000,,2013-03-09 05:12:00,
2013-03-09 00:32:00,29.0,23.0,-100.00,NNW,339,3.0,5.0,79,0.00,,,0.24,0.000000,,2013-03-09 05:32:00,
2013-03-09 00:43:00,29.0,23.0,-100.00,NNW,339,3.0,5.0,79,0.00,,,0.24,0.000000,,2013-03-09 05:43:00,
2013-03-09 00:53:00,29.0,23.0,-100.00,NNW,339,3.0,5.0,79,0.00,,,0.24,0.000000,,2013-03-09 05:53:00,
2013-03-09 01:02:00,29.0,23.0,-100.00,NNW,339,3.0,5.0,79,0.00,,,0.24,0.000000,,2013-03-09 06:02:00,
2013-03-09 01:11:00,29.0,23.0,-100.00,NNW,339,3.0,5.0,79,0.00,,,0.24,0.000000,,2013-03-09 06:11:00,
2013-03-09 01:32:00,26.0,22.0,-100.00,North,8,1.0,5.0,85,0.00,,,0.24,0.000000,,2013-03-09 06:32:00,
2013-03-09 01:42:00,26.0,22.0,-100.00,North,8,1.0,5.0,85,0.00,,,0.24,0.000000,,2013-03-09 06:42:00,
2013-03-09 01:52:00,26.0,22.0,-100.00,North,8,1.0,5.0,85,0.00,,,0.24,0.000000,,2013-03-09 06:52:00,
2013-03-09 02:01:00,26.0,22.0,-100.00,North,8,1.0,5.0,85,0.00,,,0.24,0.000000,,2013-03-09 07:01:00,
2013-03-09 02:11:00,26.0,22.0,-100.00,North,8,1.0,5.0,85,0.00,,,0.24,0.000000,,2013-03-09 07:11:00,
2013-03-09 02:32:00,26.0,22.0,-100.00,North,1,3.0,6.0,84,0.00,,,0.24,0.000000,,2013-03-09 07:32:00,
2013-03-09 02:42:00,26.0,22.0,-100.00,North,1,3.0,6.0,84,0.00,,,0.24,0.000000,,2013-03-09 07:42:00,
2013-03-09 02:52:00,26.0,22.0,-100.00,North,1,3.0,6.0,84,0.00,,,0.24,0.000000,,2013-03-09 07:52:00,
2013-03-09 03:01:00,26.0,22.0,-100.00,North,1,3.0,6.0,84,0.00,,,0.24,0.000000,,2013-03-09 08:01:00,
2013-03-09 03:11:00,26.0,22.0,-100.00,North,1,3.0,6.0,84,0.00,,,0.24,0.000000,,2013-03-09 08:11:00,
2013-03-09 03:42:00,23.0,19.0,-100.00,NNE,23,2.0,6.0,85,0.00,,,0.24,0.000000,,2013-03-09 08:42:00,
2013-03-09 03:52:00,23.0,19.0,-100.00,NNE,23,2.0,6.0,85,0.00,,,0.24,0.000000,,2013-03-09 08:52:00,
2013-03-09 04:02:00,23.0,19.0,-100.00,NNE,23,2.0,6.0,85,0.00,,,0.24,0.000000,,2013-03-09 09:02:00,
2013-03-09 04:12:00,23.0,19.0,-100.00,NNE,23,2.0,6.0,85,0.00,,,0.24,0.000000,,2013-03-09 09:12:00,
2013-03-09 04:32:00,22.0,19.0,-100.00,NNW,341,3.0,5.0,88,0.00,,,0.24,0.000000,,2013-03-09 09:32:00,
2013-03-09 04:42:00,22.0,19.0,-100.00,NNW,341,3.0,5.0,88,0.00,,,0.24,0.000000,,2013-03-09 09:42:00,
2013-03-09 04:52:00,22.0,19.0,-100.00,NNW,341,3.0,5.0,88,0.00,,,0.24,0.000000,,2013-03-09 09:52:00,
2013-03-09 05:01:00,22.0,19.0,-100.00,NNW,341,3.0,5.0,88,0.00,,,0.24,0.000000,,2013-03-09 10:01:00,
2013-03-09 05:11:00,22.0,19.0,-100.00,NNW,341,3.0,5.0,88,0.00,,,0.24,0.000000,,2013-03-09 10:11:00,
2013-03-09 05:42:00,19.0,17.0,-100.00,North,350,2.0,4.0,90,0.00,,,0.24,0.000000,,2013-03-09 10:42:00,
2013-03-09 05:52:00,19.0,17.0,-100.00,North,350,2.0,4.0,90,0.00,,,0.24,0.000000,,2013-03-09 10:52:00,
2013-03-09 06:01:00,19.0,17.0,-100.00,North,350,2.0,4.0,90,0.00,,,0.24,0.000000,,2013-03-09 11:01:00,
2013-03-09 06:11:00,19.0,17.0,-100.00,North,350,2.0,4.0,90,0.00,,,0.24,0.000000,,2013-03-09 11:11:00,
2013-03-09 06:32:00,22.0,18.0,-100.00,NNW,343,3.0,7.0,86,0.00,,,0.24,0.000000,,2013-03-09 11:32:00,
2013-03-09 06:42:00,22.0,18.0,-100.00,NNW,343,3.0,7.0,86,0.00,,,0.24,0.000000,,2013-03-09 11:42:00,
2013-03-09 06:52:00,22.0,18.0,-100.00,NNW,343,3.0,7.0,86,0.00,,,0.24,0.000000,,2013-03-09 11:52:00,
2013-03-09 07:02:00,22.0,18.0,-100.00,NNW,343,3.0,7.0,86,0.00,,,0.24,0.000000,,2013-03-09 12:02:00,
2013-03-09 07:11:00,22.0,18.0,-100.00,NNW,343,3.0,7.0,86,0.00,,,0.24,0.000000,,2013-03-09 12:11:00,
2013-03-09 07:32:00,27.0,21.0,-100.00,NNW,346,3.0,6.0,79,0.00,,,0.24,44.000000,,2013-03-09 12:32:00,
2013-03-09 07:42:00,27.0,21.0,-100.00,NNW,346,3.0,6.0,79,0.00,,,0.24,44.000000,,2013-03-09 12:42:00,
2013-03-09 07:52:00,27.0,21.0,-100.00,NNW,346,3.0,6.0,79,0.00,,,0.24,44.000000,,2013-03-09 12:52:00,
2013-03-09 08:02:00,27.0,21.0,-100.00,NNW,346,3.0,6.0,79,0.00,,,0.24,44.000000,,2013-03-09 13:02:00,
2013-03-09 08:11:00,27.0,21.0,-100.00,NNW,346,3.0,6.0,79,0.00,,,0.24,44.000000,,2013-03-09 13:11:00,
2013-03-09 08:32:00,31.0,20.0,-100.00,NNW,343,5.0,9.0,64,0.00,,,0.24,162.000000,,2013-03-09 13:32:00,
2013-03-09 08:42:00,31.0,20.0,-100.00,NNW,343,5.0,9.0,64,0.00,,,0.24,162.000000,,2013-03-09 13:42:00,
2013-03-09 08:52:00,31.0,20.0,-100.00,NNW,343,5.0,9.0,64,0.00,,,0.24,162.000000,,2013-03-09 13:52:00,
2013-03-09 09:01:00,31.0,20.0,-100.00,NNW,343,5.0,9.0,64,0.00,,,0.24,162.000000,,2013-03-09 14:01:00,
2013-03-09 09:11:00,31.0,20.0,-100.00,NNW,343,5.0,9.0,64,0.00,,,0.24,162.000000,,2013-03-09 14:11:00,
2013-03-09 09:32:00,36.0,21.0,-100.00,NNW,327,5.0,10.0,55,0.00,,,0.24,242.000000,,2013-03-09 14:32:00,
2013-03-09 09:42:00,36.0,21.0,-100.00,NNW,327,5.0,10.0,55,0.00,,,0.24,242.000000,,2013-03-09 14:42:00,
2013-03-09 09:52:00,36.0,21.0,-100.00,NNW,327,5.0,10.0,55,0.00,,,0.24,242.000000,,2013-03-09 14:52:00,
2013-03-09 10:02:00,36.0,21.0,-100.00,NNW,327,5.0,10.0,55,0.00,,,0.24,242.000000,,2013-03-09 15:02:00,
2013-03-09 10:12:00,36.0,21.0,-100.00,NNW,327,5.0,10.0,55,0.00,,,0.24,242.000000,,2013-03-09 15:12:00,
2013-03-09 10:42:00,39.0,21.0,-100.00,North,354,5.0,11.0,48,0.00,,,0.24,297.000000,,2013-03-09 15:42:00,
2013-03-09 10:52:00,39.0,21.0,-100.00,North,354,5.0,11.0,48,0.00,,,0.24,297.000000,,2013-03-09 15:52:00,
2013-03-09 11:01:00,39.0,21.0,-100.00,North,354,5.0,11.0,48,0.00,,,0.24,297.000000,,2013-03-09 16:01:00,
2013-03-09 11:11:00,39.0,21.0,-100.00,North,354,5.0,11.0,48,0.00,,,0.24,297.000000,,2013-03-09 16:11:00,
2013-03-09 11:32:00,43.0,22.0,-100.00,North,2,4.0,11.0,42,0.00,,,0.24,334.000000,,2013-03-09 16:32:00,
2013-03-09 11:42:00,43.0,22.0,-100.00,North,2,4.0,11.0,42,0.00,,,0.24,334.000000,,2013-03-09 16:42:00,
2013-03-09 11:52:00,43.0,22.0,-100.00,North,2,4.0,11.0,42,0.00,,,0.24,334.000000,,2013-03-09 16:52:00,
2013-03-09 12:01:00,43.0,22.0,-100.00,North,2,4.0,11.0,42,0.00,,,0.24,334.000000,,2013-03-09 17:01:00,
2013-03-09 12:11:00,43.0,22.0,-100.00,North,2,4.0,11.0,42,0.00,,,0.24,334.000000,,2013-03-09 17:11:00,
2013-03-09 12:32:00,45.0,21.0,-100.00,NNE,17,5.0,12.0,38,0.00,,,0.24,350.000000,,2013-03-09 17:32:00,
2013-03-09 12:42:00,45.0,21.0,-100.00,NNE,17,5.0,12.0,38,0.00,,,0.24,350.000000,,2013-03-09 17:42:00,
2013-03-09 12:52:00,45.0,21.0,-100.00,NNE,17,5.0,12.0,38,0.00,,,0.24,350.000000,,2013-03-09 17:52:00,
2013-03-09 13:02:00,45.0,21.0,-100.00,NNE,17,5.0,12.0,38,0.00,,,0.24,350.000000,,2013-03-09 18:02:00,
2013-03-09 13:11:00,45.0,21.0,-100.00,NNE,17,5.0,12.0,38,0.00,,,0.24,350.000000,,2013-03-09 18:11:00,
2013-03-09 13:32:00,47.0,19.0,-100.00,NNE,26,5.0,10.0,33,0.00,,,0.24,348.000000,,2013-03-09 18:32:00,
2013-03-09 13:42:00,47.0,19.0,-100.00,NNE,26,5.0,10.0,33,0.00,,,0.24,348.000000,,2013-03-09 18:42:00,
2013-03-09 13:52:00,47.0,19.0,-100.00,NNE,26,5.0,10.0,33,0.00,,,0.24,348.000000,,2013-03-09 18:52:00,
2013-03-09 14:02:00,47.0,19.0,-100.00,NNE,26,5.0,10.0,33,0.00,,,0.24,348.000000,,2013-03-09 19:02:00,
2013-03-09 14:12:00,47.0,19.0,-100.00,NNE,26,5.0,10.0,33,0.00,,,0.24,348.000000,,2013-03-09 19:12:00,
2013-03-09 14:42:00,49.0,20.0,-100.00,NNE,18,5.0,11.0,31,0.00,,,0.12,331.000000,,2013-03-09 19:42:00,
2013-03-09 14:52:00,49.0,20.0,-100.00,NNE,18,5.0,11.0,31,0.00,,,0.12,331.000000,,2013-03-09 19:52:00,
2013-03-09 15:02:00,49.0,20.0,-100.00,NNE,18,5.0,11.0,31,0.00,,,0.12,331.000000,,2013-03-09 20:02:00,
2013-03-09 15:11:00,49.0,20.0,-100.00,NNE,18,5.0,11.0,31,0.00,,,0.12,331.000000,,2013-03-09 20:11:00,
2013-03-09 15:42:00,50.0,21.0,-100.00,NNW,343,5.0,10.0,31,0.00,,,0.01,297.000000,,2013-03-09 20:42:00,
2013-03-09 15:52:00,50.0,21.0,-100.00,NNW,343,5.0,10.0,31,0.00,,,0.01,297.000000,,2013-03-09 20:52:00,
2013-03-09 16:02:00,50.0,21.0,-100.00,NNW,343,5.0,10.0,31,0.00,,,0.01,297.000000,,2013-03-09 21:02:00,
2013-03-09 16:12:00,50.0,21.0,-100.00,NNW,343,5.0,10.0,31,0.00,,,0.01,297.000000,,2013-03-09 21:12:00,
2013-03-09 16:32:00,50.0,21.0,-100.00,NNW,345,6.0,12.0,31,0.00,,,0.00,235.000000,,2013-03-09 21:32:00,
2013-03-09 16:42:00,50.0,21.0,-100.00,NNW,345,6.0,12.0,31,0.00,,,0.00,235.000000,,2013-03-09 21:42:00,
2013-03-09 16:52:00,50.0,21.0,-100.00,NNW,345,6.0,12.0,31,0.00,,,0.00,235.000000,,2013-03-09 21:52:00,
2013-03-09 17:01:00,50.0,21.0,-100.00,NNW,345,6.0,12.0,31,0.00,,,0.00,235.000000,,2013-03-09 22:01:00,
2013-03-09 17:11:00,50.0,21.0,-100.00,NNW,345,6.0,12.0,31,0.00,,,0.00,235.000000,,2013-03-09 22:11:00,
2013-03-09 17:42:00,49.0,21.0,-100.00,North,6,4.0,10.0,33,0.00,,,0.00,145.000000,,2013-03-09 22:42:00,
2013-03-09 17:52:00,49.0,21.0,-100.00,North,6,4.0,10.0,33,0.00,,,0.00,145.000000,,2013-03-09 22:52:00,
2013-03-09 18:01:00,49.0,21.0,-100.00,North,6,4.0,10.0,33,0.00,,,0.00,145.000000,,2013-03-09 23:01:00,
2013-03-09 18:11:00,49.0,21.0,-100.00,North,6,4.0,10.0,33,0.00,,,0.00,145.000000,,2013-03-09 23:11:00,
2013-03-09 18:32:00,42.0,22.0,-100.00,North,353,0.0,8.0,44,0.00,,,0.00,17.000000,,2013-03-09 23:32:00,
2013-03-09 18:42:00,42.0,22.0,-100.00,North,353,0.0,8.0,44,0.00,,,0.00,17.000000,,2013-03-09 23:42:00,
2013-03-09 18:52:00,42.0,22.0,-100.00,North,353,0.0,8.0,44,0.00,,,0.00,17.000000,,2013-03-09 23:52:00,
2013-03-09 19:02:00,42.0,22.0,-100.00,North,353,0.0,8.0,44,0.00,,,0.00,17.000000,,2013-03-10 00:02:00,
2013-03-09 19:12:00,42.0,22.0,-100.00,North,353,0.0,8.0,44,0.00,,,0.00,17.000000,,2013-03-10 00:12:00,
2013-03-09 19:32:00,36.0,23.0,-100.00,NNW,346,1.0,3.0,59,0.00,,,0.00,0.000000,,2013-03-10 00:32:00,
2013-03-09 19:43:00,36.0,23.0,-100.00,NNW,346,1.0,3.0,59,0.00,,,0.00,0.000000,,2013-03-10 00:43:00,
2013-03-09 19:52:00,36.0,23.0,-100.00,NNW,346,1.0,3.0,59,0.00,,,0.00,0.000000,,2013-03-10 00:52:00,
2013-03-09 20:01:00,36.0,23.0,-100.00,NNW,346,1.0,3.0,59,0.00,,,0.00,0.000000,,2013-03-10 01:01:00,
2013-03-09 20:11:00,36.0,23.0,-100.00,NNW,346,1.0,3.0,59,0.00,,,0.00,0.000000,,2013-03-10 01:11:00,
2013-03-09 20:42:00,33.0,22.0,-100.00,NW,321,0.0,2.0,64,0.00,,,-99.99,0.000000,,2013-03-10 01:42:00,
2013-03-09 20:52:00,33.0,22.0,-100.00,NW,321,0.0,2.0,64,0.00,,,-99.99,0.000000,,2013-03-10 01:52:00,
2013-03-09 21:01:00,33.0,22.0,-100.00,NW,321,0.0,2.0,64,0.00,,,-99.99,0.000000,,2013-03-10 02:01:00,
2013-03-09 21:11:00,33.0,22.0,-100.00,NW,321,0.0,2.0,64,0.00,,,-99.99,0.000000,,2013-03-10 02:11:00,
2013-03-09 21:42:00,31.0,23.0,-100.00,North,352,3.0,5.0,72,0.00,,,-99.99,0.000000,,2013-03-10 02:42:00,
2013-03-09 21:52:00,31.0,23.0,-100.00,North,352,3.0,5.0,72,0.00,,,-99.99,0.000000,,2013-03-10 02:52:00,
2013-03-09 22:02:00,31.0,23.0,-100.00,North,352,3.0,5.0,72,0.00,,,-99.99,0.000000,,2013-03-10 03:02:00,
2013-03-09 22:12:00,31.0,23.0,-100.00,North,352,3.0,5.0,72,0.00,,,-99.99,0.000000,,2013-03-10 03:12:00,
2013-03-09 22:32:00,29.0,23.0,-100.00,North,350,0.0,4.0,77,0.00,,,0.00,0.000000,,2013-03-10 03:32:00,
2013-03-09 22:42:00,29.0,23.0,-100.00,North,350,0.0,4.0,77,0.00,,,0.00,0.000000,,2013-03-10 03:42:00,
2013-03-09 22:52:00,29.0,23.0,-100.00,North,350,0.0,4.0,77,0.00,,,0.00,0.000000,,2013-03-10 03:52:00,
2013-03-09 23:01:00,29.0,23.0,-100.00,North,350,0.0,4.0,77,0.00,,,0.00,0.000000,,2013-03-10 04:01:00,
2013-03-09 23:11:00,29.0,23.0,-100.00,North,350,0.0,4.0,77,0.00,,,0.00,0.000000,,2013-03-10 04:11:00,
2013-03-09 23:32:00,26.0,20.0,-100.00,NW,310,0.0,3.0,79,0.00,,,0.00,0.000000,,2013-03-10 04:32:00,
2013-03-09 23:42:00,26.0,20.0,-100.00,NW,310,0.0,3.0,79,0.00,,,0.00,0.000000,,2013-03-10 04:42:00,
2013-03-09 23:52:00,26.0,20.0,-100.00,NW,310,0.0,3.0,79,0.00,,,0.00,0.000000,,2013-03-10 04:52:00,